Georgia — WDJ3484 — position and weather

sailwx.info

Track history (hours):
 
Tides and Currents Weather Stations Pressure Air Temp Water Temp Dewpoint Dewpoint Depression Visibility Wind Speed Wind Dir Waves Ship Positions

Georgia

Owner: Windsong Yachts LLC, Fort Lauderdale, FL. More information available from US FCC via Universal Licensing System and Coast Guard Vessel Documentation Center.

Last reported at 2017-Dec-12 20:37 UTC. Time now 2017-Dec-17 19:44 UTC.
Position N 26°07' W 080°07'.

Length 38 m.

Type: Pleasure craft. MMSI: 367768390.

Date/timePositionNaut miles runAvg speedWind from/ knotsBaromVisibWave heightAir tempDewpointWater temp
2017-Dec-12 20:37N 26°07' W 080°07'1 3.9
2017-Dec-12 20:27N 26°07' W 080°08'2 3.1
2017-Dec-12 19:58N 26°07' W 080°09'2 3.2
2017-Dec-12 19:28N 26°06' W 080°10'0 0.5
2017-Dec-12 18:55N 26°05' W 080°11'0 0.0
2017-Dec-12 18:25N 26°05' W 080°11'0 0.0
2017-Dec-12 17:55N 26°05' W 080°11'0 0.0
2017-Dec-12 17:25N 26°05' W 080°11'0 0.0
2017-Dec-11 20:32N 26°05' W 080°11'0 2.0
2017-Dec-11 20:25N 26°06' W 080°10'1 2.3
2017-Dec-11 19:56N 26°06' W 080°10'1 1.9
2017-Dec-11 19:25N 26°07' W 080°09'2 3.2
2017-Dec-11 18:53N 26°07' W 080°07'  
2017-Dec-07 17:53N 26°07' W 080°07'1 2.5
2017-Dec-07 17:30N 26°06' W 080°07'712.2
2017-Dec-07 16:55N 26°09' W 079°60'2 4.7
2017-Dec-07 16:30N 26°11' W 080°00'611.6
2017-Dec-07 16:00N 26°07' W 080°04'3 5.5
2017-Dec-07 15:30N 26°07' W 080°07'0 0.8
2017-Dec-07 15:00N 26°07' W 080°07'  
Track history (hours):
 
Tides and Currents Weather Stations Pressure Air Temp Water Temp Dewpoint Dewpoint Depression Visibility Wind Speed Wind Dir Waves Ship Positions

Georgia

Owner: Windsong Yachts LLC, Fort Lauderdale, FL. More information available from US FCC via Universal Licensing System and Coast Guard Vessel Documentation Center.

Last reported at 2017-Dec-12 20:37 UTC. Time now 2017-Dec-17 19:44 UTC.
Position N 26°07' W 080°07'.

Length 38 m.

Type: Pleasure craft. MMSI: 367768390.

Date/timePositionNaut miles runAvg speedWind from/ knotsBaromVisibWave heightAir tempDewpointWater temp
2017-Dec-12 20:37N 26°07' W 080°07'1 3.9
2017-Dec-12 20:27N 26°07' W 080°08'2 3.1
2017-Dec-12 19:58N 26°07' W 080°09'2 3.2
2017-Dec-12 19:28N 26°06' W 080°10'0 0.5
2017-Dec-12 18:55N 26°05' W 080°11'0 0.0
2017-Dec-12 18:25N 26°05' W 080°11'0 0.0
2017-Dec-12 17:55N 26°05' W 080°11'0 0.0
2017-Dec-12 17:25N 26°05' W 080°11'0 0.0
2017-Dec-11 20:32N 26°05' W 080°11'0 2.0
2017-Dec-11 20:25N 26°06' W 080°10'1 2.3
2017-Dec-11 19:56N 26°06' W 080°10'1 1.9
2017-Dec-11 19:25N 26°07' W 080°09'2 3.2
2017-Dec-11 18:53N 26°07' W 080°07'  
2017-Dec-07 17:53N 26°07' W 080°07'1 2.5
2017-Dec-07 17:30N 26°06' W 080°07'712.2
2017-Dec-07 16:55N 26°09' W 079°60'2 4.7
2017-Dec-07 16:30N 26°11' W 080°00'611.6
2017-Dec-07 16:00N 26°07' W 080°04'3 5.5
2017-Dec-07 15:30N 26°07' W 080°07'0 0.8
2017-Dec-07 15:00N 26°07' W 080°07'  

Dump ship's entire track history